Trans Exeter — 9HA2572 — position and weather

sailwx.info

Track history (hours):
 
Tides and Currents Weather Stations Pressure Air Temp Water Temp Dewpoint Dewpoint Depression Visibility Wind Speed Wind Dir Waves Ship Positions

Trans Exeter

Last reported at 2016-Aug-24 21:32 UTC. Time now 2016-Aug-25 04:30 UTC.
Position N 54°42' W 000°56'.

Length 118 m; draft 6.3 m.

Type: Ship (hazmat cat C). MMSI: 248908000.

Date/timePositionNaut miles runAvg speedWind from/ knotsBaromVisibWave heightAir tempDewpointWater temp
2016-Aug-24 21:32N 54°42' W 000°56'1 0.8
2016-Aug-24 20:25N 54°42' W 000°54'0 0.0
2016-Aug-24 18:22N 54°42' W 000°54'0 0.1
2016-Aug-24 17:10N 54°42' W 000°54'0 0.0
2016-Aug-24 15:28N 54°42' W 000°54'0 0.0
2016-Aug-24 14:25N 54°42' W 000°54'0 0.0
2016-Aug-24 12:25N 54°42' W 000°54'0 0.0
2016-Aug-24 10:25N 54°42' W 000°54'0 0.0
2016-Aug-24 04:09N 54°42' W 000°54'0 0.0
2016-Aug-24 03:30N 54°42' W 000°54'16 7.1
2016-Aug-24 01:15N 54°37' W 000°29'1115.2
2016-Aug-24 00:33N 54°34' W 000°11'1514.7
2016-Aug-23 23:33N 54°31' E 000°14'1414.4
2016-Aug-23 22:33N 54°28' E 000°38'4313.6
2016-Aug-23 19:26N 54°14' E 001°47'4915.2
2016-Aug-23 16:13N 53°59' E 003°06'1014.8
2016-Aug-23 15:33N 53°58' E 003°23'2014.5
2016-Aug-23 14:10N 54°00' E 003°57'1514.1
2016-Aug-23 13:06N 54°02' E 004°22'813.9
2016-Aug-23 12:33N 54°03' E 004°35'1313.6
2016-Aug-23 11:33N 54°05' E 004°58'1313.2
2016-Aug-23 10:33N 54°06' E 005°20'1313.2
2016-Aug-23 09:33N 54°08' E 005°43'1513.7
2016-Aug-23 08:27N 54°10' E 006°08'1614.5
2016-Aug-23 07:19N 54°12' E 006°36'1315.1
2016-Aug-23 06:29N 54°11' E 006°58'1415.3
2016-Aug-23 05:33N 54°12' E 007°22'1414.4
2016-Aug-23 04:33N 54°08' E 007°46'1514.8
2016-Aug-23 03:33N 54°01' E 008°08'1212.5
2016-Aug-23 02:34N 53°59' E 008°29'1110.5
2016-Aug-23 01:33N 53°52' E 008°43'1010.1
2016-Aug-23 00:33N 53°51' E 009°00'1110.9
2016-Aug-22 23:33N 53°51' E 009°19'1413.7
2016-Aug-22 22:33N 53°39' E 009°31'0 0.4
2016-Aug-22 21:30N 53°39' E 009°31'0 0.0
2016-Aug-22 20:33N 53°39' E 009°31'0 0.0
2016-Aug-22 19:33N 53°39' E 009°31'0 0.0
2016-Aug-22 18:33N 53°39' E 009°31'0 0.0
2016-Aug-22 17:33N 53°39' E 009°31'0 0.0
2016-Aug-22 16:33N 53°39' E 009°31'0 0.0
2016-Aug-22 15:30N 53°39' E 009°31'0 0.0
2016-Aug-22 14:24N 53°39' E 009°31'0 0.0
2016-Aug-22 13:30N 53°39' E 009°31'0 0.0
2016-Aug-22 12:33N 53°39' E 009°31'0 0.0
2016-Aug-22 11:33N 53°39' E 009°31'0 0.0
2016-Aug-22 10:33N 53°39' E 009°31'0 0.0
2016-Aug-22 09:30N 53°39' E 009°31'0 0.0
2016-Aug-22 08:30N 53°39' E 009°31'0 0.0
2016-Aug-22 07:33N 53°39' E 009°31'0 0.0
2016-Aug-22 06:33N 53°39' E 009°31'0 0.0
2016-Aug-22 05:33N 53°39' E 009°31'0 0.5
2016-Aug-22 04:33N 53°40' E 009°31'1111.1
2016-Aug-22 03:33N 53°49' E 009°22'1312.7
2016-Aug-22 02:33N 53°51' E 009°01'1312.7
2016-Aug-22 01:34N 53°55' E 008°40'1413.6
2016-Aug-22 00:33N 53°59' E 008°18'1313.0
2016-Aug-21 23:33N 54°03' E 007°57'1515.0
2016-Aug-21 22:33N 54°09' E 007°34'1615.8
2016-Aug-21 21:34N 54°09' E 007°07'3615.5
2016-Aug-21 19:14N 54°08' E 006°06'1014.9
2016-Aug-21 18:32N 54°06' E 005°48'1414.5
2016-Aug-21 17:33N 54°04' E 005°24'1414.3
2016-Aug-21 16:33N 54°02' E 004°60'15613.0
2016-Aug-21 04:32N 51°48' E 002°47'1211.8
2016-Aug-21 03:33N 51°46' E 003°05'1110.3
2016-Aug-21 02:32N 51°41' E 003°20'1211.9
2016-Aug-21 01:34N 51°30' E 003°28'8 7.8
2016-Aug-21 00:34N 51°26' E 003°39'10 9.7
2016-Aug-20 23:34N 51°21' E 003°52'7 6.9
2016-Aug-20 22:33N 51°23' E 004°02'1010.1
2016-Aug-20 21:34N 51°18' E 004°16'3 2.8
2016-Aug-20 20:34N 51°17' E 004°20'0 0.1
2016-Aug-20 19:34N 51°17' E 004°20'1 1.0
2016-Aug-20 18:29N 51°18' E 004°20'0 0.0
2016-Aug-20 17:20N 51°18' E 004°20'0 0.0
2016-Aug-20 16:32N 51°18' E 004°20'0 0.0
2016-Aug-20 15:32N 51°18' E 004°20'0 0.0
2016-Aug-20 14:05N 51°18' E 004°20'0 0.0
2016-Aug-20 13:32N 51°18' E 004°20'0 0.0
2016-Aug-20 12:29N 51°18' E 004°20'0 0.0
2016-Aug-20 11:17N 51°18' E 004°20'0 0.0
2016-Aug-20 10:26N 51°18' E 004°20'0 0.0
2016-Aug-20 09:26N 51°18' E 004°20'0 0.0
2016-Aug-20 08:14N 51°18' E 004°20'0 0.0
2016-Aug-20 07:32N 51°18' E 004°20'0 0.0
2016-Aug-20 06:32N 51°18' E 004°20'3 2.6
2016-Aug-20 05:31N 51°16' E 004°22'0 0.0
2016-Aug-20 04:31N 51°16' E 004°22'0 0.0
2016-Aug-20 03:31N 51°16' E 004°22'0 0.0
2016-Aug-20 02:31N 51°16' E 004°22'0 0.0
2016-Aug-20 01:31N 51°16' E 004°22'0 0.0
2016-Aug-20 00:31N 51°16' E 004°22'0 0.0
2016-Aug-19 23:28N 51°16' E 004°22'0 0.0
2016-Aug-19 22:31N 51°16' E 004°22'0 0.0
2016-Aug-19 21:31N 51°16' E 004°22'0 0.0
2016-Aug-19 20:28N 51°16' E 004°22'0 0.0
2016-Aug-19 19:31N 51°16' E 004°22'0 0.0
2016-Aug-19 18:31N 51°16' E 004°22'0 0.0
2016-Aug-19 17:28N 51°16' E 004°22'0 0.0
2016-Aug-19 16:31N 51°16' E 004°22'0 0.0
2016-Aug-19 15:28N 51°16' E 004°22'0 0.0
2016-Aug-19 14:31N 51°16' E 004°22'0 0.0
2016-Aug-19 13:25N 51°16' E 004°22'0 0.0
2016-Aug-19 12:31N 51°16' E 004°22'0 0.0
2016-Aug-19 11:31N 51°16' E 004°22'0 0.0
2016-Aug-19 10:31N 51°16' E 004°22'0 0.0
2016-Aug-19 09:22N 51°16' E 004°22'0 0.0
2016-Aug-19 08:28N 51°16' E 004°22'0 0.0
2016-Aug-19 07:28N 51°16' E 004°22'0 0.0
2016-Aug-19 06:28N 51°16' E 004°22'0 0.0
2016-Aug-19 05:31N 51°16' E 004°22'0 0.0
2016-Aug-19 04:31N 51°16' E 004°22'0 0.0
2016-Aug-19 03:31N 51°16' E 004°22'0 0.0
2016-Aug-19 02:31N 51°16' E 004°22'0 0.0
2016-Aug-19 01:31N 51°16' E 004°22'0 0.0
2016-Aug-19 00:31N 51°16' E 004°22'0 0.0
2016-Aug-18 23:28N 51°16' E 004°22'0 0.0
2016-Aug-18 22:31N 51°16' E 004°22'2 1.7
2016-Aug-18 21:33N 51°17' E 004°20'1 1.4
2016-Aug-18 20:33N 51°18' E 004°18'1 0.8
2016-Aug-18 19:28N 51°18' E 004°17'0 0.0
2016-Aug-18 18:22N 51°18' E 004°17'0 0.0
2016-Aug-18 17:22N 51°18' E 004°17'0 0.0
2016-Aug-18 16:28N 51°18' E 004°17'0 0.0
2016-Aug-18 15:28N 51°18' E 004°17'0 0.0
2016-Aug-18 14:31N 51°18' E 004°17'0 0.0
2016-Aug-18 13:22N 51°18' E 004°17'0 0.0
2016-Aug-18 12:31N 51°18' E 004°17'0 0.0
2016-Aug-18 11:10N 51°18' E 004°17'0 0.0
2016-Aug-18 10:31N 51°18' E 004°17'0 0.0
2016-Aug-18 09:28N 51°18' E 004°17'0 0.0
2016-Aug-18 08:28N 51°18' E 004°17'0 0.0
2016-Aug-18 05:31N 51°18' E 004°17'0 0.0
2016-Aug-18 04:31N 51°18' E 004°17'0 0.0
2016-Aug-18 03:07N 51°18' E 004°17'0 0.0
2016-Aug-18 02:31N 51°18' E 004°17'0 0.0
2016-Aug-18 01:22N 51°18' E 004°17'0 0.0
2016-Aug-18 00:31N 51°18' E 004°17'0 0.0
2016-Aug-17 23:16N 51°18' E 004°17'0 0.0
2016-Aug-17 22:22N 51°18' E 004°17'0 0.0
2016-Aug-17 21:34N 51°18' E 004°17'6 6.2
2016-Aug-17 20:33N 51°24' E 004°12'8 8.5
2016-Aug-17 19:33N 51°26' E 003°60'9 9.2
2016-Aug-17 18:33N 51°21' E 003°47'9 8.8
2016-Aug-17 17:33N 51°26' E 003°35'10 9.5
2016-Aug-17 16:33N 51°24' E 003°20'1111.3
2016-Aug-17 15:33N 51°24' E 003°02'1211.8
2016-Aug-17 14:33N 51°22' E 002°43'1010.0
2016-Aug-17 13:32N 51°21' E 002°27'1414.1
2016-Aug-17 12:34N 51°14' E 002°08'1615.8
2016-Aug-17 11:33N 51°06' E 001°46'1816.3
2016-Aug-17 10:28N 50°52' E 001°29'1514.4
2016-Aug-17 09:28N 50°40' E 001°15'3214.5
2016-Aug-17 07:15N 50°26' E 000°30'1015.1
2016-Aug-17 06:34N 50°23' E 000°14'1414.5
2016-Aug-17 05:34N 50°19' W 000°08'1813.7
2016-Aug-17 04:16N 50°14' W 000°35'912.9
2016-Aug-17 03:32N 50°12' W 000°49'1311.8
2016-Aug-17 02:25N 50°08' W 001°09'1410.6
2016-Aug-17 01:09N 50°05' W 001°29'710.2
2016-Aug-17 00:27N 50°03' W 001°40'910.2
2016-Aug-16 23:33N 50°00' W 001°53'1111.4
2016-Aug-16 22:33N 49°56' W 002°10'1312.8
2016-Aug-16 21:33N 49°53' W 002°29'1414.1
2016-Aug-16 20:33N 49°49' W 002°50'1414.4
2016-Aug-16 19:33N 49°43' W 003°10'1414.3
2016-Aug-16 18:33N 49°35' W 003°29'1414.4
2016-Aug-16 17:33N 49°28' W 003°48'1514.7
2016-Aug-16 16:33N 49°20' W 004°08'1514.8
2016-Aug-16 15:33N 49°13' W 004°28'1515.1
2016-Aug-16 14:33N 49°06' W 004°48'1514.9
2016-Aug-16 13:33N 48°58' W 005°07'1514.7
2016-Aug-16 12:33N 48°51' W 005°26'2813.8
2016-Aug-16 10:34N 48°29' W 005°52'4513.8
2016-Aug-16 07:17N 47°49' W 006°24'  
Track history (hours):
 
Tides and Currents Weather Stations Pressure Air Temp Water Temp Dewpoint Dewpoint Depression Visibility Wind Speed Wind Dir Waves Ship Positions

Trans Exeter

Last reported at 2016-Aug-24 21:32 UTC. Time now 2016-Aug-25 04:30 UTC.
Position N 54°42' W 000°56'.

Length 118 m; draft 6.3 m.

Type: Ship (hazmat cat C). MMSI: 248908000.

Date/timePositionNaut miles runAvg speedWind from/ knotsBaromVisibWave heightAir tempDewpointWater temp
2016-Aug-24 21:32N 54°42' W 000°56'1 0.8
2016-Aug-24 20:25N 54°42' W 000°54'0 0.0
2016-Aug-24 18:22N 54°42' W 000°54'0 0.1
2016-Aug-24 17:10N 54°42' W 000°54'0 0.0
2016-Aug-24 15:28N 54°42' W 000°54'0 0.0
2016-Aug-24 14:25N 54°42' W 000°54'0 0.0
2016-Aug-24 12:25N 54°42' W 000°54'0 0.0
2016-Aug-24 10:25N 54°42' W 000°54'0 0.0
2016-Aug-24 04:09N 54°42' W 000°54'0 0.0
2016-Aug-24 03:30N 54°42' W 000°54'16 7.1
2016-Aug-24 01:15N 54°37' W 000°29'1115.2
2016-Aug-24 00:33N 54°34' W 000°11'1514.7
2016-Aug-23 23:33N 54°31' E 000°14'1414.4
2016-Aug-23 22:33N 54°28' E 000°38'4313.6
2016-Aug-23 19:26N 54°14' E 001°47'4915.2
2016-Aug-23 16:13N 53°59' E 003°06'1014.8
2016-Aug-23 15:33N 53°58' E 003°23'2014.5
2016-Aug-23 14:10N 54°00' E 003°57'1514.1
2016-Aug-23 13:06N 54°02' E 004°22'813.9
2016-Aug-23 12:33N 54°03' E 004°35'1313.6
2016-Aug-23 11:33N 54°05' E 004°58'1313.2
2016-Aug-23 10:33N 54°06' E 005°20'1313.2
2016-Aug-23 09:33N 54°08' E 005°43'1513.7
2016-Aug-23 08:27N 54°10' E 006°08'1614.5
2016-Aug-23 07:19N 54°12' E 006°36'1315.1
2016-Aug-23 06:29N 54°11' E 006°58'1415.3
2016-Aug-23 05:33N 54°12' E 007°22'1414.4
2016-Aug-23 04:33N 54°08' E 007°46'1514.8
2016-Aug-23 03:33N 54°01' E 008°08'1212.5
2016-Aug-23 02:34N 53°59' E 008°29'1110.5
2016-Aug-23 01:33N 53°52' E 008°43'1010.1
2016-Aug-23 00:33N 53°51' E 009°00'1110.9
2016-Aug-22 23:33N 53°51' E 009°19'1413.7
2016-Aug-22 22:33N 53°39' E 009°31'0 0.4
2016-Aug-22 21:30N 53°39' E 009°31'0 0.0
2016-Aug-22 20:33N 53°39' E 009°31'0 0.0
2016-Aug-22 19:33N 53°39' E 009°31'0 0.0
2016-Aug-22 18:33N 53°39' E 009°31'0 0.0
2016-Aug-22 17:33N 53°39' E 009°31'0 0.0
2016-Aug-22 16:33N 53°39' E 009°31'0 0.0
2016-Aug-22 15:30N 53°39' E 009°31'0 0.0
2016-Aug-22 14:24N 53°39' E 009°31'0 0.0
2016-Aug-22 13:30N 53°39' E 009°31'0 0.0
2016-Aug-22 12:33N 53°39' E 009°31'0 0.0
2016-Aug-22 11:33N 53°39' E 009°31'0 0.0
2016-Aug-22 10:33N 53°39' E 009°31'0 0.0
2016-Aug-22 09:30N 53°39' E 009°31'0 0.0
2016-Aug-22 08:30N 53°39' E 009°31'0 0.0
2016-Aug-22 07:33N 53°39' E 009°31'0 0.0
2016-Aug-22 06:33N 53°39' E 009°31'0 0.0
2016-Aug-22 05:33N 53°39' E 009°31'0 0.5
2016-Aug-22 04:33N 53°40' E 009°31'1111.1
2016-Aug-22 03:33N 53°49' E 009°22'1312.7
2016-Aug-22 02:33N 53°51' E 009°01'1312.7
2016-Aug-22 01:34N 53°55' E 008°40'1413.6
2016-Aug-22 00:33N 53°59' E 008°18'1313.0
2016-Aug-21 23:33N 54°03' E 007°57'1515.0
2016-Aug-21 22:33N 54°09' E 007°34'1615.8
2016-Aug-21 21:34N 54°09' E 007°07'3615.5
2016-Aug-21 19:14N 54°08' E 006°06'1014.9
2016-Aug-21 18:32N 54°06' E 005°48'1414.5
2016-Aug-21 17:33N 54°04' E 005°24'1414.3
2016-Aug-21 16:33N 54°02' E 004°60'15613.0
2016-Aug-21 04:32N 51°48' E 002°47'1211.8
2016-Aug-21 03:33N 51°46' E 003°05'1110.3
2016-Aug-21 02:32N 51°41' E 003°20'1211.9
2016-Aug-21 01:34N 51°30' E 003°28'8 7.8
2016-Aug-21 00:34N 51°26' E 003°39'10 9.7
2016-Aug-20 23:34N 51°21' E 003°52'7 6.9
2016-Aug-20 22:33N 51°23' E 004°02'1010.1
2016-Aug-20 21:34N 51°18' E 004°16'3 2.8
2016-Aug-20 20:34N 51°17' E 004°20'0 0.1
2016-Aug-20 19:34N 51°17' E 004°20'1 1.0
2016-Aug-20 18:29N 51°18' E 004°20'0 0.0
2016-Aug-20 17:20N 51°18' E 004°20'0 0.0
2016-Aug-20 16:32N 51°18' E 004°20'0 0.0
2016-Aug-20 15:32N 51°18' E 004°20'0 0.0
2016-Aug-20 14:05N 51°18' E 004°20'0 0.0
2016-Aug-20 13:32N 51°18' E 004°20'0 0.0
2016-Aug-20 12:29N 51°18' E 004°20'0 0.0
2016-Aug-20 11:17N 51°18' E 004°20'0 0.0
2016-Aug-20 10:26N 51°18' E 004°20'0 0.0
2016-Aug-20 09:26N 51°18' E 004°20'0 0.0
2016-Aug-20 08:14N 51°18' E 004°20'0 0.0
2016-Aug-20 07:32N 51°18' E 004°20'0 0.0
2016-Aug-20 06:32N 51°18' E 004°20'3 2.6
2016-Aug-20 05:31N 51°16' E 004°22'0 0.0
2016-Aug-20 04:31N 51°16' E 004°22'0 0.0
2016-Aug-20 03:31N 51°16' E 004°22'0 0.0
2016-Aug-20 02:31N 51°16' E 004°22'0 0.0
2016-Aug-20 01:31N 51°16' E 004°22'0 0.0
2016-Aug-20 00:31N 51°16' E 004°22'0 0.0
2016-Aug-19 23:28N 51°16' E 004°22'0 0.0
2016-Aug-19 22:31N 51°16' E 004°22'0 0.0
2016-Aug-19 21:31N 51°16' E 004°22'0 0.0
2016-Aug-19 20:28N 51°16' E 004°22'0 0.0
2016-Aug-19 19:31N 51°16' E 004°22'0 0.0
2016-Aug-19 18:31N 51°16' E 004°22'0 0.0
2016-Aug-19 17:28N 51°16' E 004°22'0 0.0
2016-Aug-19 16:31N 51°16' E 004°22'0 0.0
2016-Aug-19 15:28N 51°16' E 004°22'0 0.0
2016-Aug-19 14:31N 51°16' E 004°22'0 0.0
2016-Aug-19 13:25N 51°16' E 004°22'0 0.0
2016-Aug-19 12:31N 51°16' E 004°22'0 0.0
2016-Aug-19 11:31N 51°16' E 004°22'0 0.0
2016-Aug-19 10:31N 51°16' E 004°22'0 0.0
2016-Aug-19 09:22N 51°16' E 004°22'0 0.0
2016-Aug-19 08:28N 51°16' E 004°22'0 0.0
2016-Aug-19 07:28N 51°16' E 004°22'0 0.0
2016-Aug-19 06:28N 51°16' E 004°22'0 0.0
2016-Aug-19 05:31N 51°16' E 004°22'0 0.0
2016-Aug-19 04:31N 51°16' E 004°22'0 0.0
2016-Aug-19 03:31N 51°16' E 004°22'0 0.0
2016-Aug-19 02:31N 51°16' E 004°22'0 0.0
2016-Aug-19 01:31N 51°16' E 004°22'0 0.0
2016-Aug-19 00:31N 51°16' E 004°22'0 0.0
2016-Aug-18 23:28N 51°16' E 004°22'0 0.0
2016-Aug-18 22:31N 51°16' E 004°22'2 1.7
2016-Aug-18 21:33N 51°17' E 004°20'1 1.4
2016-Aug-18 20:33N 51°18' E 004°18'1 0.8
2016-Aug-18 19:28N 51°18' E 004°17'0 0.0
2016-Aug-18 18:22N 51°18' E 004°17'0 0.0
2016-Aug-18 17:22N 51°18' E 004°17'0 0.0
2016-Aug-18 16:28N 51°18' E 004°17'0 0.0
2016-Aug-18 15:28N 51°18' E 004°17'0 0.0
2016-Aug-18 14:31N 51°18' E 004°17'0 0.0
2016-Aug-18 13:22N 51°18' E 004°17'0 0.0
2016-Aug-18 12:31N 51°18' E 004°17'0 0.0
2016-Aug-18 11:10N 51°18' E 004°17'0 0.0
2016-Aug-18 10:31N 51°18' E 004°17'0 0.0
2016-Aug-18 09:28N 51°18' E 004°17'0 0.0
2016-Aug-18 08:28N 51°18' E 004°17'0 0.0
2016-Aug-18 05:31N 51°18' E 004°17'0 0.0
2016-Aug-18 04:31N 51°18' E 004°17'0 0.0
2016-Aug-18 03:07N 51°18' E 004°17'0 0.0
2016-Aug-18 02:31N 51°18' E 004°17'0 0.0
2016-Aug-18 01:22N 51°18' E 004°17'0 0.0
2016-Aug-18 00:31N 51°18' E 004°17'0 0.0
2016-Aug-17 23:16N 51°18' E 004°17'0 0.0
2016-Aug-17 22:22N 51°18' E 004°17'0 0.0
2016-Aug-17 21:34N 51°18' E 004°17'6 6.2
2016-Aug-17 20:33N 51°24' E 004°12'8 8.5
2016-Aug-17 19:33N 51°26' E 003°60'9 9.2
2016-Aug-17 18:33N 51°21' E 003°47'9 8.8
2016-Aug-17 17:33N 51°26' E 003°35'10 9.5
2016-Aug-17 16:33N 51°24' E 003°20'1111.3
2016-Aug-17 15:33N 51°24' E 003°02'1211.8
2016-Aug-17 14:33N 51°22' E 002°43'1010.0
2016-Aug-17 13:32N 51°21' E 002°27'1414.1
2016-Aug-17 12:34N 51°14' E 002°08'1615.8
2016-Aug-17 11:33N 51°06' E 001°46'1816.3
2016-Aug-17 10:28N 50°52' E 001°29'1514.4
2016-Aug-17 09:28N 50°40' E 001°15'3214.5
2016-Aug-17 07:15N 50°26' E 000°30'1015.1
2016-Aug-17 06:34N 50°23' E 000°14'1414.5
2016-Aug-17 05:34N 50°19' W 000°08'1813.7
2016-Aug-17 04:16N 50°14' W 000°35'912.9
2016-Aug-17 03:32N 50°12' W 000°49'1311.8
2016-Aug-17 02:25N 50°08' W 001°09'1410.6
2016-Aug-17 01:09N 50°05' W 001°29'710.2
2016-Aug-17 00:27N 50°03' W 001°40'910.2
2016-Aug-16 23:33N 50°00' W 001°53'1111.4
2016-Aug-16 22:33N 49°56' W 002°10'1312.8
2016-Aug-16 21:33N 49°53' W 002°29'1414.1
2016-Aug-16 20:33N 49°49' W 002°50'1414.4
2016-Aug-16 19:33N 49°43' W 003°10'1414.3
2016-Aug-16 18:33N 49°35' W 003°29'1414.4
2016-Aug-16 17:33N 49°28' W 003°48'1514.7
2016-Aug-16 16:33N 49°20' W 004°08'1514.8
2016-Aug-16 15:33N 49°13' W 004°28'1515.1
2016-Aug-16 14:33N 49°06' W 004°48'1514.9
2016-Aug-16 13:33N 48°58' W 005°07'1514.7
2016-Aug-16 12:33N 48°51' W 005°26'2813.8
2016-Aug-16 10:34N 48°29' W 005°52'4513.8
2016-Aug-16 07:17N 47°49' W 006°24'  

Dump ship's entire track history